Temp: 5.2°C   Baro: 1000.3mb
  Wind: 0.0mph   Dir: WSW (242°)
  Rain: 0.0mm (0.0mm/hr)
  Solar: 63W/m2  Hum: 90%
 
Bath Spa Weather Historical Data
Daily Summary for July 17, 2019 Units:  Metric    English   Both
Next Day »
Daily Weekly Monthly Yearly Custom
  High: Low: Average:
Temperature: 22.4 °C 13.0 °C 17.6 °C
Dew Point: 15.4 °C 11.2 °C 13.3 °C
Humidity: 89% 61% 77%
Wind Speed: 17.7km/h 0.0km/h 4.5km/h
Wind Gust: 24.1km/h - -
Wind direction- - West
Pressure: 1017.5 hPa 1010.7 hPa -
Precipitation: 0.3 mm    
Historical Graphs
 
 
Tabular Data for July 17, 2019
Time Temperature Dew Point Pressure Wind direction Wind Speed Wind Gust Humidity Rainfall Rate (Hourly) solar
00:04 16.6 °C 12.6 °C 1017.5 hPa Calm     77% 0.0 mm 0.00 W/m2
00:09 16.5 °C 12.7 °C 1017.5 hPa Calm     78% 0.0 mm 0.00 W/m2
00:14 16.4 °C 12.6 °C 1017.5 hPa Calm     78% 0.0 mm 0.00 W/m2
00:19 16.5 °C 12.7 °C 1017.5 hPa Calm     78% 0.0 mm 0.00 W/m2
00:24 16.4 °C 12.6 °C 1017.5 hPa Calm     78% 0.0 mm 0.00 W/m2
00:29 16.4 °C 12.7 °C 1017.5 hPa Calm     79% 0.0 mm 0.00 W/m2
00:34 16.4 °C 12.7 °C 1017.2 hPa Calm     79% 0.0 mm 0.00 W/m2
00:39 16.2 °C 12.6 °C 1017.2 hPa Calm     79% 0.0 mm 0.00 W/m2
00:44 16.1 °C 12.5 °C 1017.2 hPa Calm     79% 0.0 mm 0.00 W/m2
00:49 15.9 °C 12.5 °C 1017.2 hPa Calm     80% 0.0 mm 0.00 W/m2
00:54 15.7 °C 12.3 °C 1017.2 hPa Calm     80% 0.0 mm 0.00 W/m2
00:59 15.5 °C 12.3 °C 1017.2 hPa Calm     81% 0.0 mm 0.00 W/m2
01:04 15.4 °C 12.2 °C 1017.2 hPa Calm     81% 0.0 mm 0.00 W/m2
01:09 15.3 °C 12.2 °C 1016.8 hPa Calm     82% 0.0 mm 0.00 W/m2
01:14 15.2 °C 12.1 °C 1016.8 hPa Calm     82% 0.0 mm 0.00 W/m2
01:19 15.1 °C 12.0 °C 1016.8 hPa Calm     82% 0.0 mm 0.00 W/m2
01:24 15.0 °C 12.1 °C 1016.8 hPa Calm     83% 0.0 mm 0.00 W/m2
01:29 15.0 °C 12.1 °C 1016.8 hPa Calm     83% 0.0 mm 0.00 W/m2
01:34 15.0 °C 12.1 °C 1016.8 hPa Calm     83% 0.0 mm 0.00 W/m2
01:39 14.9 °C 12.0 °C 1016.8 hPa Calm     83% 0.0 mm 0.00 W/m2
01:44 14.9 °C 12.0 °C 1016.8 hPa Calm     83% 0.0 mm 0.00 W/m2
01:49 14.9 °C 12.0 °C 1016.8 hPa Calm     83% 0.0 mm 0.00 W/m2
01:54 14.9 °C 12.0 °C 1016.8 hPa Calm     83% 0.0 mm 0.00 W/m2
01:59 14.8 °C 12.1 °C 1016.8 hPa Calm     84% 0.0 mm 0.00 W/m2
02:04 14.8 °C 12.1 °C 1016.8 hPa Calm     84% 0.0 mm 0.00 W/m2
02:09 14.8 °C 12.1 °C 1016.5 hPa Calm     84% 0.0 mm 0.00 W/m2
02:14 14.8 °C 12.1 °C 1016.8 hPa Calm     84% 0.0 mm 0.00 W/m2
02:19 14.8 °C 12.1 °C 1016.5 hPa Calm     84% 0.0 mm 0.00 W/m2
02:24 14.7 °C 12.0 °C 1016.8 hPa Calm     84% 0.0 mm 0.00 W/m2
02:29 14.5 °C 12.0 °C 1016.5 hPa Calm     85% 0.0 mm 0.00 W/m2
02:34 14.5 °C 12.0 °C 1016.5 hPa Calm     85% 0.0 mm 0.00 W/m2
02:39 14.5 °C 12.0 °C 1016.5 hPa Calm     85% 0.0 mm 0.00 W/m2
02:44 14.6 °C 12.1 °C 1016.5 hPa Calm     85% 0.0 mm 0.00 W/m2
02:49 14.5 °C 12.0 °C 1016.1 hPa Calm     85% 0.0 mm 0.00 W/m2
02:54 14.5 °C 12.0 °C 1016.1 hPa Calm     85% 0.0 mm 0.00 W/m2
02:59 14.4 °C 11.9 °C 1016.1 hPa Calm     85% 0.0 mm 0.00 W/m2
03:04 14.4 °C 12.1 °C 1016.1 hPa Calm   3.2 km/h 86% 0.0 mm 0.00 W/m2
03:09 14.4 °C 12.1 °C 1016.1 hPa Calm     86% 0.0 mm 0.00 W/m2
03:14 14.4 °C 12.1 °C 1016.1 hPa Calm     86% 0.0 mm 0.00 W/m2
03:19 14.3 °C 12.0 °C 1016.1 hPa Calm     86% 0.0 mm 0.00 W/m2
03:24 14.3 °C 12.0 °C 1015.8 hPa Calm     86% 0.0 mm 0.00 W/m2
03:29 14.2 °C 11.9 °C 1015.8 hPa Calm     86% 0.0 mm 0.00 W/m2
03:34 14.2 °C 11.9 °C 1015.8 hPa Calm     86% 0.0 mm 0.00 W/m2
03:39 14.2 °C 11.9 °C 1015.8 hPa Calm     86% 0.0 mm 0.00 W/m2
03:44 14.1 °C 11.8 °C 1015.8 hPa Calm     86% 0.0 mm 0.00 W/m2
03:49 14.0 °C 11.9 °C 1015.8 hPa Calm     87% 0.0 mm 0.00 W/m2
03:54 14.0 °C 11.9 °C 1015.8 hPa Calm     87% 0.0 mm 0.00 W/m2
03:59 14.0 °C 11.9 °C 1015.8 hPa Calm     87% 0.0 mm 0.00 W/m2
04:04 14.0 °C 11.9 °C 1015.5 hPa Calm     87% 0.0 mm 0.00 W/m2
04:09 14.0 °C 11.9 °C 1015.5 hPa Calm     87% 0.0 mm 0.00 W/m2
04:14 14.0 °C 11.9 °C 1015.5 hPa Calm     87% 0.0 mm 0.00 W/m2
04:19 13.9 °C 11.8 °C 1015.5 hPa Calm     87% 0.0 mm 0.00 W/m2
04:24 13.7 °C 11.6 °C 1015.5 hPa Calm     87% 0.0 mm 0.00 W/m2
04:29 13.7 °C 11.7 °C 1015.5 hPa Calm     88% 0.0 mm 0.00 W/m2
04:34 13.6 °C 11.6 °C 1015.5 hPa Calm     88% 0.0 mm 0.00 W/m2
04:39 13.6 °C 11.6 °C 1015.5 hPa Calm     88% 0.0 mm 0.00 W/m2
04:44 13.6 °C 11.6 °C 1015.5 hPa Calm     88% 0.0 mm 0.00 W/m2
04:49 13.5 °C 11.6 °C 1015.5 hPa Calm     88% 0.0 mm 0.00 W/m2
04:54 13.5 °C 11.7 °C 1015.5 hPa Calm     89% 0.0 mm 0.00 W/m2
04:59 13.5 °C 11.7 °C 1015.5 hPa Calm     89% 0.0 mm 0.00 W/m2
05:04 13.4 °C 11.5 °C 1015.5 hPa Calm     88% 0.0 mm 0.00 W/m2
05:09 13.3 °C 11.5 °C 1015.5 hPa Calm     89% 0.0 mm 0.00 W/m2
05:14 13.3 °C 11.5 °C 1015.5 hPa Calm     89% 0.0 mm 0.00 W/m2
05:19 13.2 °C 11.4 °C 1015.5 hPa Calm     89% 0.0 mm 5.00 W/m2
05:24 13.1 °C 11.3 °C 1015.1 hPa Calm     89% 0.0 mm 7.00 W/m2
05:29 13.0 °C 11.2 °C 1015.1 hPa Calm     89% 0.0 mm 11.00 W/m2
05:34 13.0 °C 11.2 °C 1015.1 hPa Calm     89% 0.0 mm 12.00 W/m2
05:39 13.1 °C 11.3 °C 1015.1 hPa Calm     89% 0.0 mm 16.00 W/m2
05:44 13.2 °C 11.4 °C 1015.1 hPa Calm     89% 0.0 mm 19.00 W/m2
05:49 13.2 °C 11.4 °C 1015.1 hPa Calm     89% 0.0 mm 23.00 W/m2
05:54 13.2 °C 11.4 °C 1015.1 hPa Calm     89% 0.0 mm 28.00 W/m2
05:59 13.2 °C 11.4 °C 1015.1 hPa Calm     89% 0.0 mm 32.00 W/m2
06:04 13.2 °C 11.4 °C 1015.1 hPa Calm     89% 0.0 mm 35.00 W/m2
06:09 13.2 °C 11.4 °C 1015.1 hPa Calm     89% 0.0 mm 40.00 W/m2
06:14 13.2 °C 11.4 °C 1015.1 hPa Calm     89% 0.0 mm 44.00 W/m2
06:19 13.3 °C 11.5 °C 1014.8 hPa Calm     89% 0.0 mm 49.00 W/m2
06:24 13.3 °C 11.5 °C 1015.1 hPa Calm     89% 0.0 mm 53.00 W/m2
06:29 13.5 °C 11.7 °C 1014.8 hPa Calm     89% 0.0 mm 54.00 W/m2
06:34 13.6 °C 11.8 °C 1014.8 hPa Calm     89% 0.0 mm 56.00 W/m2
06:39 13.7 °C 11.9 °C 1015.1 hPa Calm     89% 0.0 mm 63.00 W/m2
06:44 13.8 °C 12.0 °C 1015.1 hPa Calm     89% 0.0 mm 65.00 W/m2
06:49 13.9 °C 12.1 °C 1015.1 hPa Calm     89% 0.0 mm 67.00 W/m2
06:54 14.0 °C 12.2 °C 1015.1 hPa Calm     89% 0.0 mm 70.00 W/m2
06:59 14.3 °C 12.5 °C 1015.1 hPa Calm     89% 0.0 mm 76.00 W/m2
07:04 14.7 °C 12.9 °C 1015.1 hPa Calm     89% 0.0 mm 86.00 W/m2
07:09 14.8 °C 13.0 °C 1015.1 hPa West 1.6 km/h 1.6 km/h 89% 0.0 mm 105.00 W/m2
07:14 14.9 °C 13.1 °C 1015.1 hPa Calm   1.6 km/h 89% 0.0 mm 127.00 W/m2
07:19 15.1 °C 13.3 °C 1015.1 hPa West 3.2 km/h 3.2 km/h 89% 0.0 mm 155.00 W/m2
07:24 15.2 °C 13.4 °C 1015.1 hPa West 4.7 km/h 4.8 km/h 89% 0.0 mm 171.00 W/m2
07:29 15.3 °C 13.5 °C 1015.1 hPa Calm   4.8 km/h 89% 0.0 mm 183.00 W/m2
07:34 15.4 °C 13.6 °C 1015.1 hPa Calm   4.8 km/h 89% 0.0 mm 167.00 W/m2
07:39 15.5 °C 13.7 °C 1015.1 hPa West 3.2 km/h 8.0 km/h 89% 0.0 mm 193.00 W/m2
07:44 15.7 °C 13.9 °C 1015.1 hPa Calm   6.4 km/h 89% 0.0 mm 218.00 W/m2
07:49 15.8 °C 14.0 °C 1015.1 hPa West 3.2 km/h 6.4 km/h 89% 0.0 mm 230.00 W/m2
07:54 15.9 °C 13.9 °C 1015.1 hPa Calm   4.8 km/h 88% 0.0 mm 278.00 W/m2
07:59 16.2 °C 14.2 °C 1015.1 hPa West 3.2 km/h 8.0 km/h 88% 0.0 mm 276.00 W/m2
08:04 16.3 °C 14.3 °C 1015.1 hPa West 3.2 km/h 8.0 km/h 88% 0.0 mm 250.00 W/m2
08:09 16.5 °C 14.3 °C 1015.1 hPa West 6.4 km/h 6.4 km/h 87% 0.0 mm 278.00 W/m2
08:14 16.5 °C 14.1 °C 1015.1 hPa West 3.2 km/h 6.4 km/h 86% 0.0 mm 272.00 W/m2
08:19 16.7 °C 14.3 °C 1015.1 hPa West 6.4 km/h 9.7 km/h 86% 0.0 mm 272.00 W/m2
08:24 16.9 °C 14.4 °C 1015.1 hPa West 3.2 km/h 6.4 km/h 85% 0.0 mm 257.00 W/m2
08:29 17.2 °C 14.5 °C 1015.1 hPa West 7.9 km/h 8.0 km/h 84% 0.0 mm 264.00 W/m2
08:34 17.3 °C 14.2 °C 1015.1 hPa West 3.2 km/h 4.8 km/h 82% 0.0 mm 223.00 W/m2
08:39 17.5 °C 14.0 °C 1015.1 hPa Calm   3.2 km/h 80% 0.0 mm 258.00 W/m2
08:44 17.6 °C 14.1 °C 1015.1 hPa West 6.4 km/h 8.0 km/h 80% 0.0 mm 290.00 W/m2
08:49 17.7 °C 14.0 °C 1014.8 hPa West 1.4 km/h 8.0 km/h 79% 0.0 mm 292.00 W/m2
08:54 18.0 °C 14.3 °C 1014.8 hPa West 1.4 km/h 6.4 km/h 79% 0.0 mm 343.00 W/m2
08:59 18.3 °C 14.2 °C 1014.8 hPa West 11.3 km/h 11.3 km/h 77% 0.0 mm 408.00 W/m2
09:04 18.0 °C 13.9 °C 1014.8 hPa West 7.9 km/h 9.7 km/h 77% 0.0 mm 304.00 W/m2
09:09 18.2 °C 13.9 °C 1014.8 hPa West 7.9 km/h 12.9 km/h 76% 0.0 mm 271.00 W/m2
09:14 18.5 °C 14.2 °C 1014.8 hPa West 3.2 km/h 6.4 km/h 76% 0.0 mm 373.00 W/m2
09:19 18.5 °C 14.0 °C 1014.8 hPa West 4.7 km/h 8.0 km/h 75% 0.0 mm 388.00 W/m2
09:24 18.9 °C 14.4 °C 1014.8 hPa West 9.7 km/h 9.7 km/h 75% 0.0 mm 417.00 W/m2
09:29 18.8 °C 14.3 °C 1014.8 hPa West 1.4 km/h 3.2 km/h 75% 0.0 mm 413.00 W/m2
09:34 19.2 °C 14.5 °C 1014.8 hPa West 4.7 km/h 6.4 km/h 74% 0.0 mm 464.00 W/m2
09:39 19.3 °C 14.1 °C 1014.8 hPa West 3.2 km/h 11.3 km/h 72% 0.0 mm 520.00 W/m2
09:44 19.6 °C 13.8 °C 1014.8 hPa West 9.7 km/h 9.7 km/h 69% 0.0 mm 512.00 W/m2
09:49 19.8 °C 13.5 °C 1014.8 hPa West 9.7 km/h 9.7 km/h 67% 0.0 mm 448.00 W/m2
09:54 19.5 °C 13.7 °C 1014.8 hPa WNW 3.2 km/h 9.7 km/h 69% 0.0 mm 397.00 W/m2
09:59 19.5 °C 13.4 °C 1014.8 hPa WNW 6.4 km/h 9.7 km/h 68% 0.0 mm 390.00 W/m2
10:04 19.5 °C 13.4 °C 1014.4 hPa WNW 1.4 km/h 9.7 km/h 68% 0.0 mm 445.00 W/m2
10:09 19.8 °C 13.5 °C 1014.4 hPa WNW 4.7 km/h 9.7 km/h 67% 0.0 mm 450.00 W/m2
10:14 20.0 °C 13.7 °C 1014.4 hPa WNW 1.4 km/h 9.7 km/h 67% 0.0 mm 471.00 W/m2
10:19 20.0 °C 13.7 °C 1014.4 hPa West 3.2 km/h 12.9 km/h 67% 0.0 mm 533.00 W/m2
10:24 20.1 °C 13.5 °C 1014.4 hPa West 1.4 km/h 8.0 km/h 66% 0.0 mm 522.00 W/m2
10:29 20.2 °C 13.6 °C 1014.4 hPa West 9.7 km/h 12.9 km/h 66% 0.0 mm 529.00 W/m2
10:34 20.6 °C 13.8 °C 1014.4 hPa West 3.2 km/h 9.7 km/h 65% 0.0 mm 591.00 W/m2
10:39 20.9 °C 13.3 °C 1014.4 hPa West 11.1 km/h 17.7 km/h 62% 0.0 mm 605.00 W/m2
10:44 20.8 °C 14.4 °C 1014.4 hPa WSW 1.4 km/h 6.4 km/h 67% 0.0 mm 559.00 W/m2
10:49 21.2 °C 14.8 °C 1014.4 hPa WSW 3.2 km/h 4.8 km/h 67% 0.0 mm 480.00 W/m2
10:54 20.7 °C 14.4 °C 1014.4 hPa WSW 3.2 km/h 11.3 km/h 67% 0.0 mm 490.00 W/m2
10:59 21.0 °C 14.6 °C 1014.4 hPa WSW 3.2 km/h 14.5 km/h 67% 0.0 mm 520.00 W/m2
11:04 21.0 °C 14.9 °C 1014.4 hPa West 4.7 km/h 14.5 km/h 68% 0.0 mm 452.00 W/m2
11:09 20.8 °C 14.7 °C 1014.4 hPa WNW 9.7 km/h 9.7 km/h 68% 0.0 mm 450.00 W/m2
11:14 20.9 °C 14.5 °C 1014.4 hPa West 4.7 km/h 9.7 km/h 67% 0.0 mm 459.00 W/m2
11:19 21.0 °C 14.6 °C 1014.4 hPa WNW 13.0 km/h 17.7 km/h 67% 0.0 mm 534.00 W/m2
11:24 20.7 °C 14.6 °C 1014.4 hPa WNW 7.9 km/h 12.9 km/h 68% 0.0 mm 575.00 W/m2
11:29 20.6 °C 14.5 °C 1014.4 hPa WNW 16.1 km/h 16.1 km/h 68% 0.0 mm 633.00 W/m2
11:34 21.0 °C 14.9 °C 1014.4 hPa WNW 6.4 km/h 9.7 km/h 68% 0.0 mm 587.00 W/m2
11:39 21.3 °C 14.9 °C 1014.4 hPa WNW 16.3 km/h 16.1 km/h 67% 0.0 mm 578.00 W/m2
11:44 21.0 °C 14.6 °C 1014.4 hPa West 7.9 km/h 16.1 km/h 67% 0.0 mm 520.00 W/m2
11:49 21.2 °C 14.8 °C 1014.4 hPa West 9.7 km/h 17.7 km/h 67% 0.0 mm 501.00 W/m2
11:54 20.9 °C 14.5 °C 1014.4 hPa West 9.7 km/h 14.5 km/h 67% 0.0 mm 520.00 W/m2
11:59 21.2 °C 14.8 °C 1014.4 hPa WSW 11.1 km/h 17.7 km/h 67% 0.0 mm 538.00 W/m2
12:04 21.2 °C 14.4 °C 1014.4 hPa WSW 9.7 km/h 14.5 km/h 65% 0.0 mm 554.00 W/m2
12:09 21.3 °C 14.7 °C 1014.1 hPa West 7.9 km/h 11.3 km/h 66% 0.0 mm 578.00 W/m2
12:14 21.3 °C 14.7 °C 1014.4 hPa West 14.3 km/h 19.3 km/h 66% 0.0 mm 424.00 W/m2
12:19 21.3 °C 14.9 °C 1014.1 hPa WSW 4.7 km/h 6.4 km/h 67% 0.0 mm 504.00 W/m2
12:24 21.0 °C 14.6 °C 1014.1 hPa West 7.9 km/h 16.1 km/h 67% 0.0 mm 454.00 W/m2
12:29 21.0 °C 14.9 °C 1014.1 hPa WSW 9.7 km/h 14.5 km/h 68% 0.0 mm 510.00 W/m2
12:34 21.0 °C 14.6 °C 1014.1 hPa West 9.7 km/h 17.7 km/h 67% 0.0 mm 515.00 W/m2
12:39 20.8 °C 14.4 °C 1014.1 hPa WSW 11.1 km/h 12.9 km/h 67% 0.0 mm 438.00 W/m2
12:44 21.2 °C 14.6 °C 1014.1 hPa WSW 4.7 km/h 11.3 km/h 66% 0.0 mm 529.00 W/m2
12:49 21.2 °C 14.8 °C 1013.8 hPa SW 6.4 km/h 11.3 km/h 67% 0.0 mm 506.00 W/m2
12:54 21.0 °C 14.6 °C 1013.8 hPa SW 7.9 km/h 16.1 km/h 67% 0.0 mm 577.00 W/m2
12:59 21.0 °C 14.4 °C 1013.8 hPa West 16.3 km/h 17.7 km/h 66% 0.0 mm 462.00 W/m2
13:04 20.9 °C 14.3 °C 1013.8 hPa WSW 13.0 km/h 17.7 km/h 66% 0.0 mm 531.00 W/m2
13:09 21.0 °C 14.4 °C 1013.8 hPa SW 6.4 km/h 12.9 km/h 66% 0.0 mm 566.00 W/m2
13:14 21.5 °C 14.6 °C 1013.8 hPa WSW 11.1 km/h 12.9 km/h 65% 0.0 mm 633.00 W/m2
13:19 21.4 °C 14.5 °C 1013.4 hPa WNW 3.2 km/h 12.9 km/h 65% 0.0 mm 654.00 W/m2
13:24 21.5 °C 14.9 °C 1013.4 hPa West 3.2 km/h 9.7 km/h 66% 0.0 mm 513.00 W/m2
13:29 22.3 °C 15.2 °C 1013.4 hPa West 4.7 km/h 11.3 km/h 64% 0.0 mm 889.00 W/m2
13:34 22.4 °C 14.5 °C 1013.4 hPa SW 11.1 km/h 12.9 km/h 61% 0.0 mm 700.00 W/m2
13:39 21.5 °C 14.4 °C 1013.4 hPa WNW 7.9 km/h 14.5 km/h 64% 0.0 mm 406.00 W/m2
13:44 21.5 °C 14.4 °C 1013.4 hPa WNW 11.1 km/h 17.7 km/h 64% 0.0 mm 446.00 W/m2
13:49 21.6 °C 14.7 °C 1013.4 hPa West 4.7 km/h 6.4 km/h 65% 0.0 mm 482.00 W/m2
13:54 21.5 °C 14.4 °C 1013.4 hPa WSW 14.3 km/h 16.1 km/h 64% 0.0 mm 473.00 W/m2
13:59 21.5 °C 14.4 °C 1013.1 hPa NW 3.2 km/h 9.7 km/h 64% 0.0 mm 504.00 W/m2
14:04 21.6 °C 14.5 °C 1013.1 hPa West 3.2 km/h 4.8 km/h 64% 0.0 mm 661.00 W/m2
14:09 21.9 °C 14.8 °C 1013.1 hPa West 7.9 km/h 14.5 km/h 64% 0.0 mm 559.00 W/m2
14:14 21.7 °C 14.6 °C 1013.1 hPa West 6.4 km/h 9.7 km/h 64% 0.0 mm 566.00 W/m2
14:19 22.1 °C 15.0 °C 1013.1 hPa NW 3.2 km/h 9.7 km/h 64% 0.0 mm 318.00 W/m2
14:24 21.7 °C 14.8 °C 1013.1 hPa WNW 1.4 km/h 11.3 km/h 65% 0.0 mm 237.00 W/m2
14:29 21.7 °C 14.8 °C 1013.1 hPa WSW 1.4 km/h 24.1 km/h 65% 0.0 mm 308.00 W/m2
14:34 21.4 °C 14.5 °C 1013.1 hPa WSW 9.7 km/h 16.1 km/h 65% 0.0 mm 339.00 W/m2
14:39 21.4 °C 14.8 °C 1013.1 hPa West 3.2 km/h 14.5 km/h 66% 0.0 mm 350.00 W/m2
14:44 21.2 °C 14.6 °C 1013.1 hPa WSW 4.7 km/h 12.9 km/h 66% 0.0 mm 431.00 W/m2
14:49 21.8 °C 15.4 °C 1013.1 hPa WNW 6.4 km/h 12.9 km/h 67% 0.0 mm 519.00 W/m2
14:54 21.8 °C 14.9 °C 1013.1 hPa NNW 11.1 km/h 12.9 km/h 65% 0.0 mm 712.00 W/m2
14:59 22.0 °C 15.1 °C 1013.1 hPa SW 11.1 km/h 12.9 km/h 65% 0.0 mm 842.00 W/m2
15:04 22.4 °C 15.3 °C 1012.8 hPa WSW 4.7 km/h 8.0 km/h 64% 0.0 mm 842.00 W/m2
15:09 22.0 °C 14.9 °C 1012.8 hPa WNW 7.9 km/h 20.9 km/h 64% 0.0 mm 722.00 W/m2
15:14 21.9 °C 14.8 °C 1012.8 hPa SW 1.4 km/h 8.0 km/h 64% 0.0 mm 469.00 W/m2
15:19 22.1 °C 15.0 °C 1012.8 hPa West 11.1 km/h 12.9 km/h 64% 0.0 mm 413.00 W/m2
15:24 21.8 °C 14.9 °C 1012.8 hPa WNW 11.1 km/h 14.5 km/h 65% 0.0 mm 243.00 W/m2
15:29 21.6 °C 14.7 °C 1012.8 hPa West 13.0 km/h 12.9 km/h 65% 0.0 mm 230.00 W/m2
15:34 21.5 °C 14.9 °C 1012.8 hPa WSW 14.3 km/h 14.5 km/h 66% 0.0 mm 204.00 W/m2
15:39 21.3 °C 14.5 °C 1012.8 hPa SW 3.2 km/h 11.3 km/h 65% 0.0 mm 223.00 W/m2
15:44 21.3 °C 14.5 °C 1012.8 hPa West 9.7 km/h 16.1 km/h 65% 0.0 mm 251.00 W/m2
15:49 21.3 °C 14.5 °C 1012.8 hPa WNW 3.2 km/h 12.9 km/h 65% 0.0 mm 190.00 W/m2
15:54 21.3 °C 14.5 °C 1012.8 hPa West 7.9 km/h 14.5 km/h 65% 0.0 mm 223.00 W/m2
15:59 21.3 °C 14.9 °C 1012.4 hPa NW 6.4 km/h 11.3 km/h 67% 0.0 mm 260.00 W/m2
16:04 21.1 °C 15.0 °C 1012.4 hPa NW 11.1 km/h 12.9 km/h 68% 0.0 mm 288.00 W/m2
16:09 21.1 °C 15.0 °C 1012.4 hPa WNW 4.7 km/h 16.1 km/h 68% 0.0 mm 287.00 W/m2
16:14 21.0 °C 14.9 °C 1012.4 hPa WSW 14.3 km/h 16.1 km/h 68% 0.0 mm 250.00 W/m2
16:19 20.9 °C 14.8 °C 1012.4 hPa West 6.4 km/h 14.5 km/h 68% 0.0 mm 230.00 W/m2
16:24 20.7 °C 14.8 °C 1012.4 hPa WNW 6.4 km/h 19.3 km/h 69% 0.0 mm 299.00 W/m2
16:29 20.7 °C 14.8 °C 1012.4 hPa NW 6.4 km/h 14.5 km/h 69% 0.0 mm 462.00 W/m2
16:34 20.9 °C 15.0 °C 1012.4 hPa WNW 11.1 km/h 17.7 km/h 69% 0.0 mm 540.00 W/m2
16:39 21.2 °C 15.1 °C 1012.4 hPa NW 7.9 km/h 19.3 km/h 68% 0.0 mm 506.00 W/m2
16:44 20.9 °C 15.0 °C 1012.4 hPa West 16.3 km/h 16.1 km/h 69% 0.0 mm 295.00 W/m2
16:49 20.9 °C 15.0 °C 1012.4 hPa West 9.7 km/h 17.7 km/h 69% 0.0 mm 288.00 W/m2
16:54 20.7 °C 14.8 °C 1012.4 hPa West 13.0 km/h 16.1 km/h 69% 0.0 mm 225.00 W/m2
16:59 20.5 °C 14.6 °C 1012.4 hPa West 4.7 km/h 16.1 km/h 69% 0.0 mm 178.00 W/m2
17:04 20.4 °C 14.5 °C 1012.4 hPa NW 7.9 km/h 16.1 km/h 69% 0.0 mm 178.00 W/m2
17:09 20.2 °C 14.6 °C 1012.4 hPa West 6.4 km/h 14.5 km/h 70% 0.0 mm 234.00 W/m2
17:14 20.0 °C 14.4 °C 1012.4 hPa West 7.9 km/h 19.3 km/h 70% 0.0 mm 251.00 W/m2
17:19 20.0 °C 14.4 °C 1012.4 hPa WSW 9.7 km/h 17.7 km/h 70% 0.0 mm 248.00 W/m2
17:24 20.0 °C 14.4 °C 1012.1 hPa West 13.0 km/h 12.9 km/h 70% 0.0 mm 230.00 W/m2
17:29 20.0 °C 14.4 °C 1012.1 hPa West 9.7 km/h 14.5 km/h 70% 0.0 mm 193.00 W/m2
17:34 19.8 °C 14.2 °C 1012.1 hPa WNW 11.1 km/h 12.9 km/h 70% 0.0 mm 167.00 W/m2
17:39 19.6 °C 14.2 °C 1012.1 hPa West 4.7 km/h 8.0 km/h 71% 0.0 mm 167.00 W/m2
17:44 19.6 °C 14.2 °C 1012.1 hPa WNW 14.3 km/h 14.5 km/h 71% 0.0 mm 135.00 W/m2
17:49 19.5 °C 14.1 °C 1012.1 hPa WNW 7.9 km/h 16.1 km/h 71% 0.0 mm 104.00 W/m2
17:54 19.3 °C 13.9 °C 1012.1 hPa West 6.4 km/h 16.1 km/h 71% 0.0 mm 72.00 W/m2
17:59 19.2 °C 13.8 °C 1012.1 hPa West 13.0 km/h 19.3 km/h 71% 0.0 mm 69.00 W/m2
18:04 18.8 °C 13.9 °C 1012.1 hPa NW 13.0 km/h 22.5 km/h 73% 0.0 mm 79.00 W/m2
18:09 18.5 °C 13.8 °C 1012.1 hPa West 14.3 km/h 14.5 km/h 74% 0.0 mm 105.00 W/m2
18:14 18.2 °C 13.5 °C 1012.4 hPa WNW 9.7 km/h 16.1 km/h 74% 0.3 mm 169.00 W/m2
18:19 18.2 °C 13.7 °C 1012.1 hPa West 6.4 km/h 8.0 km/h 75% 0.3 mm 178.00 W/m2
18:24 18.0 °C 13.9 °C 1012.1 hPa West 7.9 km/h 11.3 km/h 77% 0.3 mm 144.00 W/m2
18:29 17.8 °C 13.9 °C 1012.1 hPa West 6.4 km/h 9.7 km/h 78% 0.3 mm 98.00 W/m2
18:34 17.7 °C 14.0 °C 1012.1 hPa WNW 4.7 km/h 12.9 km/h 79% 0.3 mm 95.00 W/m2
18:39 17.8 °C 14.1 °C 1012.1 hPa WSW 7.9 km/h 9.7 km/h 79% 0.3 mm 118.00 W/m2
18:44 17.7 °C 14.2 °C 1012.1 hPa WNW 7.9 km/h 9.7 km/h 80% 0.3 mm 118.00 W/m2
18:49 17.7 °C 14.2 °C 1012.1 hPa West 1.4 km/h 12.9 km/h 80% 0.3 mm 98.00 W/m2
18:54 17.7 °C 14.4 °C 1012.1 hPa West 4.7 km/h 9.7 km/h 81% 0.3 mm 109.00 W/m2
18:59 17.6 °C 14.3 °C 1012.1 hPa WSW 4.7 km/h 12.9 km/h 81% 0.3 mm 116.00 W/m2
19:04 17.6 °C 14.3 °C 1011.7 hPa West 7.9 km/h 14.5 km/h 81% 0.3 mm 123.00 W/m2
19:09 17.6 °C 14.3 °C 1011.7 hPa WSW 1.4 km/h 11.3 km/h 81% 0.3 mm 125.00 W/m2
19:14 17.5 °C 14.2 °C 1011.7 hPa WNW 14.5 km/h 14.5 km/h 81% 0.0 mm 132.00 W/m2
19:19 17.5 °C 14.2 °C 1011.7 hPa West 7.9 km/h 12.9 km/h 81% 0.0 mm 139.00 W/m2
19:24 17.5 °C 14.0 °C 1011.7 hPa West 7.9 km/h 11.3 km/h 80% 0.0 mm 127.00 W/m2
19:29 17.6 °C 14.1 °C 1011.7 hPa WNW 9.7 km/h 14.5 km/h 80% 0.0 mm 104.00 W/m2
19:34 17.4 °C 13.9 °C 1011.7 hPa WNW 9.7 km/h 14.5 km/h 80% 0.0 mm 81.00 W/m2
19:39 17.4 °C 13.9 °C 1011.7 hPa WNW 3.2 km/h 12.9 km/h 80% 0.0 mm 72.00 W/m2
19:44 17.4 °C 13.9 °C 1011.7 hPa WNW 9.7 km/h 12.9 km/h 80% 0.0 mm 67.00 W/m2
19:49 17.4 °C 13.9 °C 1011.7 hPa West 4.7 km/h 12.9 km/h 80% 0.0 mm 67.00 W/m2
19:54 17.4 °C 13.9 °C 1011.7 hPa West 9.7 km/h 12.9 km/h 80% 0.0 mm 67.00 W/m2
19:59 17.4 °C 13.9 °C 1011.7 hPa West 6.4 km/h 12.9 km/h 80% 0.0 mm 63.00 W/m2
20:04 17.4 °C 13.7 °C 1011.7 hPa West 11.1 km/h 14.5 km/h 79% 0.0 mm 63.00 W/m2
20:09 17.4 °C 13.5 °C 1011.7 hPa West 9.7 km/h 12.9 km/h 78% 0.0 mm 56.00 W/m2
20:14 17.5 °C 13.4 °C 1011.7 hPa West 7.9 km/h 9.7 km/h 77% 0.0 mm 53.00 W/m2
20:19 17.6 °C 13.5 °C 1011.7 hPa West 9.7 km/h 14.5 km/h 77% 0.0 mm 49.00 W/m2
20:24 17.5 °C 13.0 °C 1011.7 hPa West 16.1 km/h 16.1 km/h 75% 0.0 mm 39.00 W/m2
20:29 17.5 °C 13.0 °C 1011.7 hPa WSW 7.9 km/h 12.9 km/h 75% 0.0 mm 30.00 W/m2
20:34 17.5 °C 12.8 °C 1011.7 hPa West 6.4 km/h 17.7 km/h 74% 0.0 mm 23.00 W/m2
20:39 17.5 °C 12.8 °C 1011.7 hPa WNW 4.7 km/h 9.7 km/h 74% 0.0 mm 21.00 W/m2
20:44 17.4 °C 12.7 °C 1011.7 hPa West 17.7 km/h 17.7 km/h 74% 0.0 mm 21.00 W/m2
20:49 17.4 °C 12.7 °C 1011.7 hPa WNW 7.9 km/h 12.9 km/h 74% 0.0 mm 16.00 W/m2
20:54 17.4 °C 12.7 °C 1011.7 hPa WNW 6.4 km/h 14.5 km/h 74% 0.0 mm 14.00 W/m2
20:59 17.4 °C 12.9 °C 1011.7 hPa WNW 7.9 km/h 9.7 km/h 75% 0.0 mm 11.00 W/m2
21:04 17.3 °C 12.8 °C 1011.7 hPa West 4.7 km/h 12.9 km/h 75% 0.0 mm 7.00 W/m2
21:09 17.3 °C 12.8 °C 1011.7 hPa WNW 7.9 km/h 12.9 km/h 75% 0.0 mm 5.00 W/m2
21:14 17.2 °C 12.9 °C 1011.7 hPa West 7.9 km/h 11.3 km/h 76% 0.0 mm 0.00 W/m2
21:19 17.1 °C 12.8 °C 1011.7 hPa WNW 9.7 km/h 12.9 km/h 76% 0.0 mm 0.00 W/m2
21:24 17.0 °C 12.7 °C 1011.7 hPa WNW 4.7 km/h 12.9 km/h 76% 0.0 mm 0.00 W/m2
21:29 17.0 °C 12.9 °C 1011.7 hPa WNW 4.7 km/h 6.4 km/h 77% 0.0 mm 0.00 W/m2
21:34 17.0 °C 12.9 °C 1011.7 hPa WNW 3.2 km/h 3.2 km/h 77% 0.0 mm 0.00 W/m2
21:39 17.0 °C 12.9 °C 1011.7 hPa WNW 3.2 km/h 6.4 km/h 77% 0.0 mm 0.00 W/m2
21:44 16.9 °C 12.8 °C 1011.7 hPa West 3.2 km/h 8.0 km/h 77% 0.0 mm 0.00 W/m2
21:49 16.9 °C 12.8 °C 1011.7 hPa West 1.4 km/h 9.7 km/h 77% 0.0 mm 0.00 W/m2
21:54 16.9 °C 13.0 °C 1011.7 hPa West 4.7 km/h 6.4 km/h 78% 0.0 mm 0.00 W/m2
21:59 16.9 °C 13.0 °C 1011.7 hPa Calm   8.0 km/h 78% 0.0 mm 0.00 W/m2
22:04 16.8 °C 12.9 °C 1011.7 hPa West 6.4 km/h 9.7 km/h 78% 0.0 mm 0.00 W/m2
22:09 16.8 °C 12.7 °C 1011.7 hPa WSW 4.7 km/h 9.7 km/h 77% 0.0 mm 0.00 W/m2
22:14 16.7 °C 12.6 °C 1011.7 hPa West 6.4 km/h 12.9 km/h 77% 0.0 mm 0.00 W/m2
22:19 16.7 °C 12.4 °C 1011.7 hPa West 6.4 km/h 9.7 km/h 76% 0.0 mm 0.00 W/m2
22:24 16.7 °C 12.4 °C 1011.7 hPa West 7.9 km/h 11.3 km/h 76% 0.0 mm 0.00 W/m2
22:29 16.7 °C 12.4 °C 1011.7 hPa WNW 4.7 km/h 6.4 km/h 76% 0.0 mm 0.00 W/m2
22:34 16.7 °C 12.4 °C 1011.4 hPa WNW 1.4 km/h 4.8 km/h 76% 0.0 mm 0.00 W/m2
22:39 16.7 °C 12.4 °C 1011.4 hPa WNW 1.4 km/h 4.8 km/h 76% 0.0 mm 0.00 W/m2
22:44 16.5 °C 12.1 °C 1011.4 hPa WNW 1.4 km/h 4.8 km/h 75% 0.0 mm 0.00 W/m2
22:49 16.5 °C 12.3 °C 1011.4 hPa WNW 3.2 km/h 6.4 km/h 76% 0.0 mm 0.00 W/m2
22:54 16.4 °C 12.2 °C 1011.4 hPa WNW 1.4 km/h 4.8 km/h 76% 0.0 mm 0.00 W/m2
22:59 16.3 °C 12.1 °C 1011.4 hPa Calm   1.6 km/h 76% 0.0 mm 0.00 W/m2
23:04 16.3 °C 12.1 °C 1011.4 hPa WNW 1.4 km/h 4.8 km/h 76% 0.0 mm 0.00 W/m2
23:09 16.2 °C 12.2 °C 1011.1 hPa WNW 1.4 km/h 4.8 km/h 77% 0.0 mm 0.00 W/m2
23:14 16.2 °C 12.2 °C 1011.1 hPa WNW 1.4 km/h 3.2 km/h 77% 0.0 mm 0.00 W/m2
23:19 16.1 °C 12.1 °C 1011.1 hPa Calm   3.2 km/h 77% 0.0 mm 0.00 W/m2
23:24 16.0 °C 12.2 °C 1011.1 hPa WNW 1.4 km/h 3.2 km/h 78% 0.0 mm 0.00 W/m2
23:29 15.9 °C 12.1 °C 1010.7 hPa WNW 1.4 km/h 3.2 km/h 78% 0.0 mm 0.00 W/m2
23:34 15.8 °C 12.0 °C 1010.7 hPa Calm   1.6 km/h 78% 0.0 mm 0.00 W/m2
23:39 15.8 °C 12.0 °C 1011.1 hPa Calm   1.6 km/h 78% 0.0 mm 0.00 W/m2
23:44 15.7 °C 12.1 °C 1011.1 hPa Calm   4.8 km/h 79% 0.0 mm 0.00 W/m2
23:49 15.7 °C 12.1 °C 1011.1 hPa Calm   3.2 km/h 79% 0.0 mm 0.00 W/m2
23:54 15.7 °C 12.1 °C 1010.7 hPa Calm   1.6 km/h 79% 0.0 mm 0.00 W/m2
23:59 15.7 °C 12.3 °C 1010.7 hPa Calm   1.6 km/h 80% 0.0 mm 0.00 W/m2